Time;durP1;ratioP1;P1;durP2;ratioP2;P2;SDS_P1;SDS_P2;PMS_P1;PMS_P2;Temp;Humidity;BMP_temperature;BMP_pressure;BME280_temperature;BME280_humidity;BME280_pressure;Samples;Min_cycle;Max_cycle;Signal;HPM_P1;HPM_P2
2021/05/07 00:00:50;;;;;;;1999.90;999.90;;;3.80;99.90;;;;;;4894651;29;20183;-89
2021/05/07 00:03:16;;;;;;;1999.90;999.90;;;3.80;99.90;;;;;;4894231;29;20525;-88
2021/05/07 00:05:42;;;;;;;1999.90;999.90;;;3.70;99.90;;;;;;4894587;29;20184;-90
2021/05/07 00:08:07;;;;;;;1999.90;999.90;;;3.70;99.90;;;;;;4894597;29;20182;-89
2021/05/07 00:10:33;;;;;;;1999.90;999.90;;;3.70;99.90;;;;;;4893789;29;20215;-88
2021/05/07 00:12:59;;;;;;;1999.90;999.90;;;3.80;99.90;;;;;;4894091;29;20175;-88
2021/05/07 00:15:25;;;;;;;1999.90;999.90;;;3.70;99.90;;;;;;4894281;29;20648;-89
2021/05/07 00:17:50;;;;;;;1999.90;999.90;;;3.70;99.90;;;;;;4894303;29;20542;-89
2021/05/07 00:20:16;;;;;;;1999.90;999.90;;;3.70;99.90;;;;;;4894236;29;20608;-89
2021/05/07 00:22:42;;;;;;;1999.90;999.90;;;3.60;99.90;;;;;;4894352;29;20198;-89
2021/05/07 00:25:09;;;;;;;1999.90;999.90;;;3.70;99.90;;;;;;4894700;29;20176;-89
2021/05/07 00:27:34;;;;;;;1999.90;999.90;;;3.70;99.90;;;;;;4894145;29;20191;-90
2021/05/07 00:30:00;;;;;;;1999.90;999.90;;;3.70;99.90;;;;;;4895582;29;20219;-90
2021/05/07 00:32:26;;;;;;;1999.90;999.90;;;3.70;99.90;;;;;;4897471;29;20214;-89
2021/05/07 00:34:52;;;;;;;1999.90;999.90;;;3.70;99.90;;;;;;4897725;29;20199;-89
2021/05/07 00:37:17;;;;;;;1999.90;999.90;;;3.80;99.90;;;;;;4883416;29;20605;-90
2021/05/07 00:39:43;;;;;;;1999.90;999.90;;;3.70;99.90;;;;;;4897210;29;20540;-89
2021/05/07 00:42:11;;;;;;;1999.90;999.90;;;3.70;99.90;;;;;;4897241;29;20661;-89
2021/05/07 00:44:37;;;;;;;1999.90;999.90;;;3.80;99.90;;;;;;4882275;29;20187;-89
2021/05/07 00:47:06;;;;;;;1999.90;999.90;;;3.70;99.90;;;;;;4897952;29;20655;-90
2021/05/07 00:49:36;;;;;;;1999.90;999.90;;;3.70;99.90;;;;;;4897503;29;20211;-89
2021/05/07 00:52:04;;;;;;;1999.90;999.90;;;3.80;99.90;;;;;;4897139;29;20191;-90
2021/05/07 00:54:31;;;;;;;1999.90;999.90;;;3.80;99.90;;;;;;4897172;29;20643;-89
2021/05/07 00:56:57;;;;;;;1999.90;999.90;;;3.80;99.90;;;;;;4897164;29;20175;-90
2021/05/07 00:59:22;;;;;;;1999.90;999.90;;;3.70;99.90;;;;;;4898353;29;20176;-89
2021/05/07 01:01:49;;;;;;;1999.90;999.90;;;3.70;99.90;;;;;;4898377;29;20266;-89
2021/05/07 01:04:15;;;;;;;1999.90;999.90;;;3.70;99.90;;;;;;4896886;29;20231;-89
2021/05/07 01:06:42;;;;;;;1999.90;999.90;;;3.70;99.90;;;;;;4896654;29;20182;-89
2021/05/07 01:09:08;;;;;;;1999.90;999.90;;;3.70;99.90;;;;;;4896768;29;20183;-90
2021/05/07 01:11:38;;;;;;;1999.90;999.90;;;3.70;99.90;;;;;;4896769;29;20240;-89
2021/05/07 01:14:05;;;;;;;1999.90;999.90;;;3.80;99.90;;;;;;4896608;29;20187;-89
2021/05/07 01:16:32;;;;;;;1999.90;999.90;;;3.80;99.90;;;;;;4896792;29;20544;-89
2021/05/07 01:18:59;;;;;;;1999.90;999.90;;;3.80;99.90;;;;;;4896835;29;20179;-89
2021/05/07 01:21:25;;;;;;;1999.90;999.90;;;3.80;99.90;;;;;;4896659;29;20533;-89
2021/05/07 01:23:50;;;;;;;1999.90;999.90;;;3.80;99.90;;;;;;4896432;29;20179;-88
2021/05/07 01:26:16;;;;;;;1999.90;999.90;;;3.80;99.90;;;;;;4896693;29;20659;-90
2021/05/07 01:28:42;;;;;;;1999.90;999.90;;;3.80;99.90;;;;;;4896112;29;20176;-89
2021/05/07 01:31:08;;;;;;;1999.90;999.90;;;3.90;99.90;;;;;;4896225;29;20222;-89
2021/05/07 01:33:35;;;;;;;1999.90;999.90;;;4.00;99.90;;;;;;4896348;29;20179;-88
2021/05/07 01:36:00;;;;;;;1999.90;999.90;;;4.00;99.90;;;;;;4896276;29;20183;-89
2021/05/07 01:38:26;;;;;;;1999.90;999.90;;;3.90;99.90;;;;;;4896211;29;20175;-89
2021/05/07 01:40:55;;;;;;;1999.90;999.90;;;4.00;99.90;;;;;;4879949;29;20180;-88
2021/05/07 01:43:21;;;;;;;1999.90;999.90;;;3.90;99.90;;;;;;4896113;29;20262;-88
2021/05/07 01:45:48;;;;;;;1999.90;999.90;;;4.00;99.90;;;;;;4896430;29;20185;-88
2021/05/07 01:48:14;;;;;;;1999.90;999.90;;;4.00;99.90;;;;;;4880346;29;20266;-89
2021/05/07 01:50:42;;;;;;;1999.90;999.90;;;4.00;99.90;;;;;;4896063;29;20219;-89
2021/05/07 01:53:09;;;;;;;1999.90;999.90;;;4.00;99.90;;;;;;4895914;29;20203;-90
2021/05/07 01:55:40;;;;;;;1999.90;999.90;;;4.00;99.90;;;;;;4896320;29;20183;-89
2021/05/07 01:58:08;;;;;;;1999.90;999.90;;;4.00;99.90;;;;;;4896043;29;20183;-89
2021/05/07 02:00:34;;;;;;;1999.90;999.90;;;4.00;99.90;;;;;;4880250;29;20186;-89
2021/05/07 02:03:01;;;;;;;1999.90;999.90;;;3.90;99.90;;;;;;4896117;29;20238;-89
2021/05/07 02:05:28;;;;;;;1999.90;999.90;;;4.00;99.90;;;;;;4895896;29;20180;-89
2021/05/07 02:07:55;;;;;;;1999.90;999.90;;;4.00;99.90;;;;;;4896395;29;20183;-89
2021/05/07 02:10:23;;;;;;;1999.90;999.90;;;3.90;99.90;;;;;;4895650;29;20294;-89
2021/05/07 02:12:50;;;;;;;1999.90;999.90;;;3.80;99.90;;;;;;4895730;29;20183;-90
2021/05/07 02:15:18;;;;;;;1999.90;999.90;;;3.80;99.90;;;;;;4895502;29;20646;-90
2021/05/07 02:17:44;;;;;;;1999.90;999.90;;;3.80;99.90;;;;;;4895360;29;20242;-89
2021/05/07 02:20:14;;;;;;;1999.90;999.90;;;3.80;99.90;;;;;;4895251;29;20209;-90
2021/05/07 02:22:41;;;;;;;1999.90;999.90;;;3.70;99.90;;;;;;4895378;29;20195;-90
2021/05/07 02:25:07;;;;;;;1999.90;999.90;;;3.70;99.90;;;;;;4896030;29;20181;-89
2021/05/07 02:27:33;;;;;;;1999.90;999.90;;;3.70;99.90;;;;;;4895625;29;20209;-89
2021/05/07 02:29:59;;;;;;;1999.90;999.90;;;3.70;99.90;;;;;;4895713;29;20221;-89
2021/05/07 02:32:36;;;;;;;1999.90;999.90;;;3.80;99.90;;;;;;4895721;29;20190;-89
2021/05/07 02:35:03;;;;;;;1999.90;999.90;;;3.90;99.90;;;;;;4896024;29;20220;-89
2021/05/07 02:37:29;;;;;;;1999.90;999.90;;;3.90;99.90;;;;;;4895218;29;20408;-90
2021/05/07 02:40:15;;;;;;;1999.90;999.90;;;3.90;99.90;;;;;;4895637;29;20171;-89
2021/05/07 02:42:41;;;;;;;1999.90;999.90;;;4.00;99.90;;;;;;4895562;29;20180;-90
2021/05/07 02:45:09;;;;;;;1999.90;999.90;;;4.10;99.90;;;;;;4895964;29;20623;-90
2021/05/07 02:47:41;;;;;;;1999.90;999.90;;;4.10;99.90;;;;;;4897746;29;20187;-89
2021/05/07 02:50:10;;;;;;;1999.90;999.90;;;4.20;99.90;;;;;;4895227;29;20214;-90
2021/05/07 02:52:40;;;;;;;1999.90;999.90;;;4.20;99.90;;;;;;4894829;29;20638;-89
2021/05/07 02:55:08;;;;;;;1999.90;999.90;;;4.30;99.90;;;;;;4895287;29;20171;-90
2021/05/07 02:57:36;;;;;;;1999.90;999.90;;;4.40;99.90;;;;;;4895054;29;20270;-90
2021/05/07 03:00:05;;;;;;;1999.90;999.90;;;4.40;99.90;;;;;;4895022;29;20183;-92
2021/05/07 03:02:31;;;;;;;1999.90;999.90;;;4.50;99.90;;;;;;4895681;29;20175;-91
2021/05/07 03:04:57;;;;;;;1999.90;999.90;;;4.50;99.90;;;;;;4895009;29;20711;-90
2021/05/07 03:07:25;;;;;;;1999.90;999.90;;;4.50;99.90;;;;;;4895003;29;20180;-90
2021/05/07 03:09:51;;;;;;;1999.90;999.90;;;4.50;99.90;;;;;;4895339;29;20210;-91
2021/05/07 03:12:17;;;;;;;1999.90;999.90;;;4.50;99.90;;;;;;4894891;29;20319;-90
2021/05/07 03:14:50;;;;;;;1999.90;999.90;;;4.50;99.90;;;;;;4896491;29;20209;-90
2021/05/07 03:17:18;;;;;;;1999.90;999.90;;;4.40;99.90;;;;;;4896058;29;20215;-89
2021/05/07 03:19:47;;;;;;;1999.90;999.90;;;4.40;99.90;;;;;;4895318;29;20656;-90
2021/05/07 03:22:13;;;;;;;1999.90;999.90;;;4.30;99.90;;;;;;4895063;29;20195;-89
2021/05/07 03:24:38;;;;;;;1999.90;999.90;;;4.20;99.90;;;;;;4894585;29;20183;-90
2021/05/07 03:27:19;;;;;;;1999.90;999.90;;;4.10;99.90;;;;;;4894774;29;20541;-90
2021/05/07 03:29:45;;;;;;;1999.90;999.90;;;4.00;99.90;;;;;;4894553;29;20207;-90
2021/05/07 03:32:11;;;;;;;1999.90;999.90;;;3.90;99.90;;;;;;4894267;29;20179;-89
2021/05/07 03:34:37;;;;;;;1999.90;999.90;;;4.00;99.90;;;;;;4894401;29;20183;-91
2021/05/07 03:37:03;;;;;;;1999.90;999.90;;;3.90;99.90;;;;;;4894567;29;20552;-89
2021/05/07 03:39:28;;;;;;;1999.90;999.90;;;3.90;99.90;;;;;;4894579;29;20186;-89
2021/05/07 03:41:54;;;;;;;1999.90;999.90;;;4.00;99.90;;;;;;4894441;29;20194;-90
2021/05/07 03:44:20;;;;;;;1999.90;999.90;;;4.10;99.90;;;;;;4894663;29;20175;-90
2021/05/07 03:46:46;;;;;;;1999.90;999.90;;;4.20;99.90;;;;;;4894479;29;20235;-90
2021/05/07 03:49:11;;;;;;;1999.90;999.90;;;4.20;99.90;;;;;;4894229;29;20234;-90
2021/05/07 03:51:37;;;;;;;1999.90;999.90;;;4.30;99.90;;;;;;4879995;29;20266;-91
2021/05/07 03:54:03;;;;;;;1999.90;999.90;;;4.40;99.90;;;;;;4894044;29;20731;-90
2021/05/07 03:56:29;;;;;;;1999.90;999.90;;;4.40;99.90;;;;;;4894320;29;20232;-90
2021/05/07 03:58:56;;;;;;;1999.90;999.90;;;4.30;99.90;;;;;;4894622;29;20203;-90
2021/05/07 04:01:24;;;;;;;1999.90;999.90;;;4.30;99.90;;;;;;4894348;29;20176;-90
2021/05/07 04:03:50;;;;;;;1999.90;999.90;;;4.30;99.90;;;;;;4894197;29;20647;-90
2021/05/07 04:06:20;;;;;;;1999.90;999.90;;;4.20;99.90;;;;;;4897645;29;20191;-90
2021/05/07 04:14:15;;;;;;;1999.90;999.90;;;4.30;99.90;;;;;;4884006;29;20591;-91
2021/05/07 04:16:41;;;;;;;1999.90;999.90;;;4.20;99.90;;;;;;4898938;29;20563;-90
2021/05/07 04:19:07;;;;;;;1999.90;999.90;;;4.20;99.90;;;;;;4898073;29;20183;-90
2021/05/07 04:21:33;;;;;;;1999.90;999.90;;;4.20;99.90;;;;;;4897785;29;20523;-90
2021/05/07 04:23:58;;;;;;;1999.90;999.90;;;4.20;99.90;;;;;;4898296;29;20179;-89
2021/05/07 04:26:55;;;;;;;1999.90;999.90;;;4.20;99.90;;;;;;4899180;29;20209;-95
2021/05/07 04:29:40;;;;;;;;;;;;;;;;;;;;;
2021/05/07 04:55:23;;;;;;;1999.90;999.90;;;5.20;99.90;;;;;;4881824;29;20222;-94
2021/05/07 04:57:52;;;;;;;1999.90;999.90;;;5.10;99.90;;;;;;4882028;29;20234;-89
2021/05/07 05:00:34;;;;;;;;;;;;;;;;;;;;;
2021/05/07 05:03:09;;;;;;;1999.90;999.90;;;4.90;99.90;;;;;;4883052;29;20179;-90
2021/05/07 05:05:35;;;;;;;1999.90;999.90;;;5.00;99.90;;;;;;4878817;29;20276;-88
2021/05/07 05:08:01;;;;;;;1999.90;999.90;;;4.90;99.90;;;;;;4862437;29;20223;-88
2021/05/07 05:10:30;;;;;;;1999.90;999.90;;;4.80;99.90;;;;;;4870113;29;20220;-90
2021/05/07 05:12:56;;;;;;;1999.90;999.90;;;4.70;99.90;;;;;;4862364;29;20184;-90
2021/05/07 05:15:25;;;;;;;1999.90;999.90;;;4.70;99.90;;;;;;4877867;29;20648;-92
2021/05/07 05:18:12;;;;;;;1999.90;999.90;;;4.70;99.90;;;;;;4875716;29;20190;-91
2021/05/07 05:20:49;;;;;;;1999.90;999.90;;;4.80;99.90;;;;;;4883276;29;20191;-92
2021/05/07 05:23:14;;;;;;;1999.90;999.90;;;4.70;99.90;;;;;;4897052;29;20187;-90
2021/05/07 05:25:46;;;;;;;1999.90;999.90;;;4.80;99.90;;;;;;4897583;29;20179;-92
2021/05/07 05:28:14;;;;;;;1999.90;999.90;;;4.80;99.90;;;;;;4896695;29;20195;-92
2021/05/07 05:30:40;;;;;;;1999.90;999.90;;;4.80;99.90;;;;;;4896866;29;20207;-89
2021/05/07 05:33:10;;;;;;;1999.90;999.90;;;4.80;99.90;;;;;;4896414;29;20185;-92
2021/05/07 05:35:39;;;;;;;1999.90;999.90;;;4.80;99.90;;;;;;4892699;29;20187;-92
2021/05/07 05:41:00;;;;;;;1999.90;999.90;;;4.80;99.90;;;;;;4882613;29;20187;-89
2021/05/07 05:43:26;;;;;;;1999.90;999.90;;;4.80;99.90;;;;;;4877672;29;20190;-90
2021/05/07 05:46:03;;;;;;;1999.90;999.90;;;4.80;99.90;;;;;;4881045;29;20175;-90
2021/05/07 05:48:29;;;;;;;1999.90;999.90;;;4.90;99.90;;;;;;4874515;29;20188;-87
2021/05/07 05:50:54;;;;;;;1999.90;999.90;;;4.90;99.90;;;;;;4871167;29;20215;-88
2021/05/07 05:53:20;;;;;;;1999.90;999.90;;;5.00;99.90;;;;;;4869336;29;20231;-88
2021/05/07 05:55:46;;;;;;;1999.90;999.90;;;5.00;99.90;;;;;;4866029;29;20180;-88
2021/05/07 05:58:12;;;;;;;1999.90;999.90;;;5.00;99.90;;;;;;4861590;29;20609;-88
2021/05/07 06:00:38;;;;;;;1999.90;999.90;;;5.10;99.90;;;;;;4867128;29;20172;-90
2021/05/07 06:03:05;;;;;;;1999.90;999.90;;;5.10;99.90;;;;;;4875197;29;20179;-88
2021/05/07 06:05:31;;;;;;;1999.90;999.90;;;5.10;99.90;;;;;;4872056;29;20176;-87
2021/05/07 06:07:57;;;;;;;1999.90;999.90;;;5.10;99.90;;;;;;4878601;29;20643;-87
2021/05/07 06:10:23;;;;;;;1999.90;999.90;;;5.20;99.90;;;;;;4880123;29;20195;-87
2021/05/07 06:12:50;;;;;;;1999.90;999.90;;;5.30;99.90;;;;;;4879894;29;20659;-85
2021/05/07 06:15:18;;;;;;;1999.90;999.90;;;5.40;99.90;;;;;;4877660;29;20246;-87
2021/05/07 06:17:45;;;;;;;1999.90;999.90;;;5.40;99.90;;;;;;4886713;29;20218;-85
2021/05/07 06:20:13;;;;;;;1999.90;999.90;;;5.50;99.90;;;;;;4880137;29;20188;-89
2021/05/07 06:23:00;;;;;;;;;;;;;;;;;;;;;
2021/05/07 06:25:57;;;;;;;1999.90;999.90;;;6.10;99.90;;;;;;4880368;29;20185;-89
2021/05/07 06:28:46;;;;;;;1999.90;999.90;;;6.40;99.90;;;;;;4885497;29;20196;-89
2021/05/07 06:31:11;;;;;;;1999.90;999.90;;;6.40;99.90;;;;;;4880171;29;20215;-86
2021/05/07 06:33:38;;;;;;;1999.90;999.90;;;6.30;99.90;;;;;;4893953;29;20194;-87
2021/05/07 06:36:04;;;;;;;1999.90;999.90;;;6.00;99.90;;;;;;4879832;29;20180;-87
2021/05/07 06:38:32;;;;;;;1999.90;999.90;;;5.90;99.90;;;;;;4879440;29;20239;-87
2021/05/07 06:40:58;;;;;;;1999.90;999.90;;;5.80;99.90;;;;;;4880037;29;20274;-87
2021/05/07 06:43:24;;;;;;;1999.90;999.90;;;5.60;99.90;;;;;;4879896;29;20275;-87
2021/05/07 06:45:49;;;;;;;1999.90;999.90;;;5.60;99.90;;;;;;4879991;29;20658;-87
2021/05/07 06:48:15;;;;;;;1999.90;999.90;;;5.80;99.90;;;;;;4879864;29;20179;-86
2021/05/07 06:50:44;;;;;;;1999.90;999.90;;;6.20;99.90;;;;;;4879780;29;20215;-88
2021/05/07 06:53:09;;;;;;;1999.90;999.90;;;6.30;99.90;;;;;;4879982;29;20710;-87
2021/05/07 06:55:38;;;;;;;1999.90;999.90;;;6.40;99.90;;;;;;4879684;29;20275;-86
2021/05/07 06:58:04;;;;;;;1999.90;999.90;;;6.60;99.90;;;;;;4877546;29;20194;-87
2021/05/07 07:00:32;;;;;;;1999.90;999.90;;;6.80;99.90;;;;;;4870386;29;20275;-86
2021/05/07 07:02:58;;;;;;;1999.90;999.90;;;7.00;99.90;;;;;;4877425;29;20555;-88
2021/05/07 07:05:24;;;;;;;1999.90;999.90;;;7.20;99.90;;;;;;4893385;29;20191;-87
2021/05/07 07:07:49;;;;;;;1999.90;999.90;;;7.40;99.90;;;;;;4879484;29;20184;-86
2021/05/07 07:10:15;;;;;;;1999.90;999.90;;;7.40;99.90;;;;;;4879072;29;20210;-87
2021/05/07 07:12:41;;;;;;;1999.90;999.90;;;7.60;99.90;;;;;;4876685;29;20179;-87
2021/05/07 07:15:07;;;;;;;1999.90;999.90;;;7.70;99.90;;;;;;4879258;29;20647;-87
2021/05/07 07:17:34;;;;;;;1999.90;999.90;;;7.90;99.90;;;;;;4871991;29;20644;-87
2021/05/07 07:19:59;;;;;;;1999.90;999.90;;;7.80;99.90;;;;;;4879104;29;20649;-87
2021/05/07 07:22:25;;;;;;;1999.90;999.90;;;7.60;99.90;;;;;;4879339;29;20235;-87
2021/05/07 07:24:51;;;;;;;1999.90;999.90;;;7.70;99.90;;;;;;4879480;29;20547;-88
2021/05/07 07:27:17;;;;;;;1999.90;999.90;;;7.80;99.90;;;;;;4893164;29;20171;-85
2021/05/07 07:29:44;;;;;;;1999.90;999.90;;;7.80;99.90;;;;;;4872677;29;20199;-87
2021/05/07 07:32:14;;;;;;;1999.90;999.90;;;7.90;99.90;;;;;;4878880;29;20311;-87
2021/05/07 07:34:40;;;;;;;1999.90;999.90;;;8.00;99.90;;;;;;4870912;29;20179;-87
2021/05/07 07:37:06;;;;;;;1999.90;999.90;;;8.20;99.90;;;;;;4879300;29;20182;-87
2021/05/07 07:39:32;;;;;;;1999.90;999.90;;;8.50;99.90;;;;;;4880536;29;20198;-87
2021/05/07 07:41:57;;;;;;;1999.90;999.90;;;8.50;99.90;;;;;;4881720;29;20641;-87
2021/05/07 07:44:23;;;;;;;1999.90;999.90;;;8.70;99.90;;;;;;4882148;29;20182;-88
2021/05/07 07:46:49;;;;;;;1999.90;999.90;;;9.00;99.90;;;;;;4874933;29;20182;-87
2021/05/07 07:49:16;;;;;;;1999.90;999.90;;;9.20;99.90;;;;;;4878224;29;20171;-84
2021/05/07 07:51:41;;;;;;;1999.90;999.90;;;9.50;99.90;;;;;;4880427;29;20626;-86
2021/05/07 07:54:08;;;;;;;1999.90;999.90;;;9.70;99.90;;;;;;4884190;29;20197;-87
2021/05/07 07:56:35;;;;;;;1999.90;999.90;;;9.60;99.90;;;;;;4882087;29;20196;-87
2021/05/07 07:59:01;;;;;;;1999.90;999.90;;;9.50;99.90;;;;;;4876815;29;20202;-87
2021/05/07 08:01:26;;;;;;;1999.90;999.90;;;9.60;99.90;;;;;;4879373;29;20606;-87
2021/05/07 08:03:52;;;;;;;1999.90;999.90;;;9.70;99.90;;;;;;4881970;29;20187;-87
2021/05/07 08:06:18;;;;;;;1999.90;999.90;;;9.80;99.90;;;;;;4882136;29;20187;-88
2021/05/07 08:08:44;;;;;;;1999.90;999.90;;;10.10;99.90;;;;;;4882686;29;20247;-87
2021/05/07 08:11:10;;;;;;;1999.90;999.90;;;10.50;99.90;;;;;;4881110;29;20199;-88
2021/05/07 08:13:35;;;;;;;1999.90;999.90;;;10.90;99.90;;;;;;4882342;29;20183;-88
2021/05/07 08:16:01;;;;;;;1999.90;999.90;;;10.60;99.90;;;;;;4877927;29;20175;-88
2021/05/07 08:18:27;;;;;;;1999.90;999.90;;;10.40;99.90;;;;;;4879240;29;20239;-88
2021/05/07 08:21:26;;;;;;;1999.90;999.90;;;10.60;99.90;;;;;;4879760;29;20184;-87
2021/05/07 08:27:16;;;;;;;1999.90;999.90;;;10.40;99.90;;;;;;4867868;29;20190;-87
2021/05/07 08:29:47;;;;;;;1999.90;999.90;;;10.60;99.90;;;;;;4888986;29;20208;-88
2021/05/07 08:32:13;;;;;;;1999.90;999.90;;;10.90;99.90;;;;;;4877480;29;20273;-87
2021/05/07 08:34:42;;;;;;;1999.90;999.90;;;11.30;99.90;;;;;;4895980;29;20655;-87
2021/05/07 08:37:09;;;;;;;1999.90;999.90;;;10.90;99.90;;;;;;4881206;29;20258;-88
2021/05/07 08:39:38;;;;;;;1999.90;999.90;;;11.10;99.90;;;;;;4880095;29;20179;-87
2021/05/07 08:42:06;;;;;;;1999.90;999.90;;;11.40;99.90;;;;;;4881072;29;20171;-86
2021/05/07 08:44:32;;;;;;;1999.90;999.90;;;11.40;99.90;;;;;;4892713;29;20236;-88
2021/05/07 08:47:00;;;;;;;1999.90;999.90;;;11.30;99.90;;;;;;4880113;29;20278;-88
2021/05/07 08:49:29;;;;;;;1999.90;999.90;;;11.30;99.90;;;;;;4881142;29;20602;-87
2021/05/07 08:51:57;;;;;;;1999.90;999.90;;;11.10;99.90;;;;;;4881401;29;20183;-88
2021/05/07 08:54:27;;;;;;;1999.90;999.90;;;11.20;99.90;;;;;;4878398;29;20267;-87
2021/05/07 08:56:56;;;;;;;1999.90;999.90;;;11.20;99.90;;;;;;4876713;29;20184;-87
2021/05/07 08:59:25;;;;;;;1999.90;999.90;;;11.70;99.90;;;;;;4875375;29;20375;-88
2021/05/07 09:01:56;;;;;;;1999.90;999.90;;;12.10;99.90;;;;;;4878806;29;20587;-87
2021/05/07 09:04:22;;;;;;;1999.90;999.90;;;12.40;99.90;;;;;;4880827;29;20263;-88
2021/05/07 09:06:55;;;;;;;1999.90;999.90;;;11.80;99.90;;;;;;4895450;29;20274;-87
2021/05/07 09:09:29;;;;;;;1999.90;999.90;;;11.60;99.90;;;;;;4874175;29;20183;-88
2021/05/07 09:12:05;;;;;;;1999.90;999.90;;;11.70;99.90;;;;;;4881295;29;20202;-88
2021/05/07 09:14:31;;;;;;;1999.90;999.90;;;11.90;99.90;;;;;;4880451;29;20233;-89
2021/05/07 09:17:02;;;;;;;1999.90;999.90;;;11.90;99.90;;;;;;4878787;29;20231;-88
2021/05/07 09:19:30;;;;;;;1999.90;999.90;;;12.10;99.90;;;;;;4880892;29;20179;-88
2021/05/07 09:21:57;;;;;;;1999.90;999.90;;;11.90;99.90;;;;;;4892242;29;20206;-88
2021/05/07 09:24:32;;;;;;;1999.90;999.90;;;12.00;99.90;;;;;;4878421;29;20183;-87
2021/05/07 09:27:02;;;;;;;1999.90;999.90;;;11.60;99.90;;;;;;4877000;29;20183;-88
2021/05/07 09:29:30;;;;;;;1999.90;999.90;;;11.60;99.90;;;;;;4874733;29;20282;-88
2021/05/07 09:31:56;;;;;;;1999.90;999.90;;;11.70;99.90;;;;;;4881665;29;20214;-86
2021/05/07 09:34:23;;;;;;;1999.90;999.90;;;12.20;99.90;;;;;;4885079;29;20179;-85
2021/05/07 09:36:50;;;;;;;1999.90;999.90;;;12.60;99.90;;;;;;4880875;29;20275;-86
2021/05/07 09:39:23;;;;;;;1999.90;999.90;;;12.70;99.90;;;;;;4881001;29;20183;-86
2021/05/07 09:41:50;;;;;;;1999.90;999.90;;;12.60;99.90;;;;;;4895383;29;20213;-86
2021/05/07 09:44:25;;;;;;;1999.90;999.90;;;12.70;99.90;;;;;;4894030;29;20226;-86
2021/05/07 09:46:54;;;;;;;1999.90;999.90;;;12.10;99.90;;;;;;4874358;29;20179;-86
2021/05/07 09:49:28;;;;;;;1999.90;999.90;;;12.10;99.90;;;;;;4880773;29;20202;-86
2021/05/07 09:51:57;;;;;;;1999.90;999.90;;;12.30;99.90;;;;;;4883614;29;20231;-85
2021/05/07 09:54:26;;;;;;;1999.90;999.90;;;12.30;99.90;;;;;;4879088;29;20218;-86
2021/05/07 09:56:54;;;;;;;1999.90;999.90;;;12.50;99.90;;;;;;4889700;29;20198;-87
2021/05/07 09:59:23;;;;;;;1999.90;999.90;;;12.70;99.90;;;;;;4879504;29;20208;-86
2021/05/07 10:01:51;;;;;;;1999.90;999.90;;;12.90;99.90;;;;;;4876061;29;20641;-87
2021/05/07 10:04:17;;;;;;;1999.90;999.90;;;13.10;99.90;;;;;;4876937;29;20270;-86
2021/05/07 10:06:43;;;;;;;1999.90;999.90;;;12.90;99.90;;;;;;4880764;29;20258;-87
2021/05/07 10:09:11;;;;;;;1999.90;999.90;;;13.20;99.90;;;;;;4880814;29;20182;-87
2021/05/07 10:11:46;;;;;;;1999.90;999.90;;;13.40;99.90;;;;;;4877569;29;21040;-88
2021/05/07 10:14:14;;;;;;;1999.90;999.90;;;13.80;99.90;;;;;;4889586;29;20183;-86
2021/05/07 10:16:41;;;;;;;1999.90;999.90;;;14.20;99.90;;;;;;4876057;29;20187;-87
2021/05/07 10:19:12;;;;;;;1999.90;999.90;;;14.70;99.90;;;;;;4880003;29;20644;-87
2021/05/07 10:21:49;;;;;;;1999.90;999.90;;;14.30;99.90;;;;;;4879317;29;20203;-87
2021/05/07 10:24:36;;;;;;;1999.90;999.90;;;13.60;99.90;;;;;;4891472;29;20265;-88
2021/05/07 10:27:15;;;;;;;1999.90;999.90;;;13.20;99.90;;;;;;4882089;29;20187;-87
2021/05/07 10:29:52;;;;;;;1999.90;999.90;;;13.60;99.90;;;;;;4874326;29;20659;-89
2021/05/07 10:32:36;;;;;;;1999.90;999.90;;;13.50;99.90;;;;;;4872332;29;20179;-87
2021/05/07 10:35:03;;;;;;;1999.90;999.90;;;14.00;99.90;;;;;;4879074;29;20176;-87
2021/05/07 10:37:38;;;;;;;1999.90;999.90;;;14.50;99.90;;;;;;4894209;29;20263;-86
2021/05/07 10:40:05;;;;;;;1999.90;999.90;;;14.30;99.90;;;;;;4871535;29;20647;-86
2021/05/07 10:42:33;;;;;;;1999.90;999.90;;;14.50;99.90;;;;;;4877202;29;20215;-87
2021/05/07 10:44:59;;;;;;;1999.90;999.90;;;14.00;99.90;;;;;;4878924;29;20195;-87
2021/05/07 10:47:36;;;;;;;1999.90;999.90;;;13.60;99.90;;;;;;4877784;29;20191;-87
2021/05/07 10:50:16;;;;;;;1999.90;999.90;;;13.60;99.90;;;;;;4875381;29;20221;-87
2021/05/07 10:52:44;;;;;;;1999.90;999.90;;;13.70;99.90;;;;;;4872827;29;20223;-92
2021/05/07 10:55:15;;;;;;;1999.90;999.90;;;14.40;99.90;;;;;;4879825;29;20213;-91
2021/05/07 10:57:41;;;;;;;1999.90;999.90;;;14.90;99.90;;;;;;4872380;29;20199;-89
2021/05/07 11:00:15;;;;;;;1999.90;999.90;;;14.50;99.90;;;;;;4879966;29;20179;-88
2021/05/07 11:02:46;;;;;;;1999.90;999.90;;;13.50;99.90;;;;;;4876544;29;20211;-90
2021/05/07 11:05:12;;;;;;;1999.90;999.90;;;12.50;99.90;;;;;;4867028;29;20235;-87
2021/05/07 11:07:52;;;;;;;1999.90;999.90;;;12.10;99.90;;;;;;4877459;29;20243;-90
2021/05/07 11:10:26;;;;;;;1999.90;999.90;;;12.30;99.90;;;;;;4880585;29;20191;-88
2021/05/07 11:12:53;;;;;;;1999.90;999.90;;;12.20;99.90;;;;;;4894170;29;20179;-86
2021/05/07 11:15:20;;;;;;;1999.90;999.90;;;12.80;99.90;;;;;;4878866;29;20258;-89
2021/05/07 11:17:46;;;;;;;1999.90;999.90;;;13.40;99.90;;;;;;4875319;29;20172;-90
2021/05/07 11:20:12;;;;;;;1999.90;999.90;;;13.80;99.90;;;;;;4863416;29;20195;-89
2021/05/07 11:22:41;;;;;;;1999.90;999.90;;;13.70;99.90;;;;;;4880585;29;20179;-90
2021/05/07 11:25:08;;;;;;;1999.90;999.90;;;14.60;99.90;;;;;;4879221;29;20230;-91
2021/05/07 11:27:36;;;;;;;1999.90;999.90;;;14.90;99.90;;;;;;4879941;29;20183;-90
2021/05/07 11:30:02;;;;;;;1999.90;999.90;;;14.20;99.90;;;;;;4890285;29;20211;-90
2021/05/07 11:32:28;;;;;;;1999.90;999.90;;;13.80;99.90;;;;;;4876815;29;20180;-90
2021/05/07 11:34:55;;;;;;;1999.90;999.90;;;13.30;99.90;;;;;;4879094;29;20179;-89
2021/05/07 11:37:22;;;;;;;1999.90;999.90;;;13.30;99.90;;;;;;4878955;29;20216;-90
2021/05/07 11:39:57;;;;;;;1999.90;999.90;;;13.80;99.90;;;;;;4879767;29;20184;-91
2021/05/07 11:42:43;;;;;;;1999.90;999.90;;;14.40;99.90;;;;;;4878680;29;20626;-89
2021/05/07 11:45:20;;;;;;;1999.90;999.90;;;14.90;99.90;;;;;;4880060;29;20261;-89
2021/05/07 11:47:46;;;;;;;1999.90;999.90;;;15.00;99.90;;;;;;4879111;29;20191;-87
2021/05/07 11:50:13;;;;;;;1999.90;999.90;;;14.90;99.90;;;;;;4879187;29;20203;-89
2021/05/07 11:53:20;;;;;;;;;;;;;;;;;;;;;
2021/05/07 11:55:50;;;;;;;1999.90;999.90;;;14.90;99.90;;;;;;4876100;29;20215;-88
2021/05/07 11:58:16;;;;;;;1999.90;999.90;;;14.70;99.90;;;;;;4879586;29;20199;-89
2021/05/07 12:01:19;;;;;;;1999.90;999.90;;;14.40;99.90;;;;;;4879370;29;20195;-88
2021/05/07 12:03:59;;;;;;;1999.90;999.90;;;14.30;99.90;;;;;;4878229;29;20191;-89
2021/05/07 12:06:29;;;;;;;1999.90;999.90;;;14.50;99.90;;;;;;4885336;29;20207;-89
2021/05/07 12:09:17;;;;;;;1999.90;999.90;;;14.40;99.90;;;;;;4879517;29;20176;-92
2021/05/07 12:11:58;;;;;;;1999.90;999.90;;;14.90;99.90;;;;;;4861365;29;20271;-92
2021/05/07 12:14:35;;;;;;;1999.90;999.90;;;14.10;99.90;;;;;;4880102;29;20206;-89
2021/05/07 12:17:00;;;;;;;1999.90;999.90;;;13.80;99.90;;;;;;4890316;29;20184;-87
2021/05/07 12:19:43;;;;;;;1999.90;999.90;;;13.60;99.90;;;;;;4875654;29;20190;-91
2021/05/07 12:22:35;;;;;;;1999.90;999.90;;;14.00;99.90;;;;;;4879360;29;20179;-92
2021/05/07 12:25:49;;;;;;;1999.90;999.90;;;14.40;99.90;;;;;;4876818;29;20247;-90
2021/05/07 12:28:28;;;;;;;1999.90;999.90;;;14.20;99.90;;;;;;4861810;29;20184;-90
2021/05/07 12:33:56;;;;;;;1999.90;999.90;;;14.70;99.90;;;;;;4881948;29;20195;-88
2021/05/07 12:36:24;;;;;;;1999.90;999.90;;;14.80;99.90;;;;;;4882405;29;20667;-90
2021/05/07 12:38:53;;;;;;;1999.90;999.90;;;14.50;99.90;;;;;;4885060;29;20644;-92
2021/05/07 12:41:45;;;;;;;1999.90;999.90;;;14.10;99.90;;;;;;4887178;29;20182;-92
2021/05/07 12:44:13;;;;;;;1999.90;999.90;;;14.00;99.90;;;;;;4864835;29;20560;-90
2021/05/07 12:46:42;;;;;;;1999.90;999.90;;;13.50;99.90;;;;;;4874495;29;20190;-89
2021/05/07 12:49:20;;;;;;;1999.90;999.90;;;13.40;99.90;;;;;;4883781;29;20195;-91
2021/05/07 12:51:48;;;;;;;1999.90;999.90;;;13.90;99.90;;;;;;4881590;29;20211;-92
2021/05/07 12:54:24;;;;;;;1999.90;999.90;;;14.20;99.90;;;;;;4882201;29;20191;-92
2021/05/07 12:57:00;;;;;;;;;;;;;;;;;;;;;
2021/05/07 12:59:28;;;;;;;1999.90;999.90;;;14.30;99.90;;;;;;4885280;29;20187;-92